KMUT

Muscatine Municipal Airport

Muscatine, Iowa, USA
METAR KMUT 191535Z AUTO 10007KT 3SM BR FEW004 SCT029 BKN043 18/17 A2991 RMK AO2
Observed Flight Rules
Jul-19 @ 15:35 UTC (8 minutes ago) Marginal Visual Flight Rules
Wind Visibility Clouds Conditions
100° at 7 knots 3 miles
  • Few at 400' AGL
  • Scattered at 2,900' AGL
  • Broken at 4,300' AGL
  • Mist
Temperatures Readings
Current 18°C / 64°F
Dewpoint 17°C / 63°F
Humidity 94%
Altimeter 29.91" Hg
Pressure 1013 hPa
Elevation 167
METAR KMUT 191535Z AUTO 10007KT 3SM BR FEW004 SCT029 BKN043 18/17 A2991 RMK AO2
Observed Flight Rules
Jul-19 @ 15:35 UTC
(8 minutes ago)
MVFR
Wind Visibility
100° at 7 knots 3 miles
Clouds
  • Few at 400' AGL
  • Scattered at 2,900' AGL
  • Broken at 4,300' AGL
Conditions
  • Mist
Temperature Dewpoint
18°C / 64°F 17°C / 63°F
Humidity Altimeter Pressure
94% 29.91" Hg 1013 hPa